createdAt,value
2018-09-23T00:02:25.227Z,101239.26
2018-09-23T00:04:54.500Z,101235.97
2018-09-23T00:07:23.967Z,101230.75
2018-09-23T00:09:53.152Z,101229.63
2018-09-23T00:12:22.408Z,101232.92
2018-09-23T00:14:51.771Z,101235.72
2018-09-23T00:17:21.004Z,101235.17
2018-09-23T00:19:50.253Z,101228.06
2018-09-23T00:22:19.535Z,101229.95
2018-09-23T00:24:48.755Z,101226.94
2018-09-23T00:27:18.087Z,101229.95
2018-09-23T00:29:50.707Z,101228.52
2018-09-23T00:32:22.992Z,101220.63
2018-09-23T00:34:52.500Z,101220.90
2018-09-23T00:37:22.340Z,101216.23
2018-09-23T00:39:51.580Z,101215.47
2018-09-23T00:42:20.864Z,101213.22
2018-09-23T00:44:49.939Z,101210.98
2018-09-23T00:47:21.311Z,101212.67
2018-09-23T00:49:50.582Z,101215.74
2018-09-23T00:52:21.444Z,101219.34
2018-09-23T00:54:50.815Z,101216.81
2018-09-23T00:57:20.264Z,101210.78
2018-09-23T00:59:49.204Z,101209.73
2018-09-23T01:02:18.315Z,101213.33
2018-09-23T01:04:47.508Z,101208.09
2018-09-23T01:07:16.749Z,101206.39
2018-09-23T01:09:45.788Z,101198.42
2018-09-23T01:12:15.020Z,101198.98
2018-09-23T01:16:25.116Z,101201.48
2018-09-23T01:18:54.476Z,101195.69
2018-09-23T01:21:23.888Z,101188.58
2018-09-23T01:23:53.276Z,101184.70
2018-09-23T01:26:22.670Z,101185.80
2018-09-23T01:28:51.857Z,101187.69
2018-09-23T01:31:21.161Z,101188.55
2018-09-23T01:33:50.552Z,101182.72
2018-09-23T01:39:15.369Z,101185.04
2018-09-23T01:41:44.821Z,101177.69
2018-09-23T01:44:14.064Z,101174.64
2018-09-23T01:46:43.316Z,101169.98
2018-09-23T01:49:12.460Z,101180.13
2018-09-23T01:51:41.717Z,101169.70
2018-09-23T01:54:10.867Z,101166.78
2018-09-23T01:56:40.336Z,101163.23
2018-09-23T01:59:09.475Z,101162.98
2018-09-23T02:01:38.730Z,101166.55
2018-09-23T02:04:08.070Z,101171.47
2018-09-23T02:06:40.840Z,101163.81
2018-09-23T02:09:10.397Z,101163.53
2018-09-23T02:11:39.702Z,101168.23
2018-09-23T02:14:08.754Z,101171.78
2018-09-23T02:16:38.027Z,101170.96
2018-09-23T02:19:07.440Z,101170.97
2018-09-23T02:21:36.713Z,101165.23
2018-09-23T02:24:05.760Z,101165.75
2018-09-23T02:26:35.237Z,101162.74
2018-09-23T02:29:04.489Z,101163.53
2018-09-23T02:31:33.891Z,101154.84
2018-09-23T02:34:03.409Z,101161.97
2018-09-23T02:36:34.102Z,101149.65
2018-09-23T02:39:03.660Z,101147.67
2018-09-23T02:41:32.853Z,101148.53
2018-09-23T02:44:02.141Z,101152.17
2018-09-23T02:46:31.548Z,101145.36
2018-09-23T02:49:01.572Z,101146.41
2018-09-23T02:51:31.093Z,101151.64
2018-09-23T02:54:00.428Z,101145.63
2018-09-23T02:56:29.781Z,101144.28
2018-09-23T02:58:58.944Z,101148.66
2018-09-23T03:01:28.068Z,101137.94
2018-09-23T03:03:57.585Z,101131.63
2018-09-23T03:06:26.967Z,101119.27
2018-09-23T03:08:56.240Z,101126.44
2018-09-23T03:11:25.378Z,101116.89
2018-09-23T03:13:54.540Z,101111.66
2018-09-23T03:16:23.757Z,101112.74
2018-09-23T03:18:53.126Z,101111.66
2018-09-23T03:21:22.364Z,101121.50
2018-09-23T03:23:52.083Z,101126.72
2018-09-23T03:26:21.461Z,101125.63
2018-09-23T03:28:50.678Z,101135.77
2018-09-23T03:31:20.068Z,101125.09
2018-09-23T03:33:49.229Z,101123.47
2018-09-23T03:36:18.363Z,101132.80
2018-09-23T03:38:47.812Z,101126.75
2018-09-23T03:41:17.137Z,101122.39
2018-09-23T03:43:46.544Z,101116.67
2018-09-23T03:46:15.949Z,101110.64
2018-09-23T03:48:45.332Z,101098.59
2018-09-23T03:51:14.471Z,101099.45
2018-09-23T03:53:43.725Z,101101.66
2018-09-23T03:56:12.877Z,101109.86
2018-09-23T03:58:41.921Z,101103.59
2018-09-23T04:04:07.020Z,101099.73
2018-09-23T04:06:36.340Z,101106.58
2018-09-23T04:09:06.906Z,101103.59
2018-09-23T04:11:36.118Z,101109.86
2018-09-23T04:14:05.281Z,101108.50
2018-09-23T04:16:34.532Z,101113.44
2018-09-23T04:19:03.755Z,101104.11
2018-09-23T04:21:33.021Z,101106.58
2018-09-23T04:24:02.289Z,101105.77
2018-09-23T04:26:31.620Z,101114.52
2018-09-23T04:29:00.869Z,101105.22
2018-09-23T04:31:30.107Z,101104.11
2018-09-23T04:33:59.064Z,101101.63
2018-09-23T04:36:28.386Z,101100.80
2018-09-23T04:38:57.657Z,101096.97
2018-09-23T04:41:27.180Z,101096.42
2018-09-23T04:43:56.676Z,101095.31
2018-09-23T04:46:26.012Z,101095.31
2018-09-23T04:48:55.185Z,101098.33
2018-09-23T04:51:24.513Z,101099.16
2018-09-23T04:53:53.698Z,101099.69
2018-09-23T04:56:22.904Z,101088.17
2018-09-23T04:58:52.181Z,101073.91
2018-09-23T05:01:21.506Z,101080.20
2018-09-23T05:03:50.982Z,101075.30
2018-09-23T05:06:20.220Z,101071.42
2018-09-23T05:08:49.604Z,101077.17
2018-09-23T05:11:18.712Z,101081.30
2018-09-23T05:13:48.082Z,101075.80
2018-09-23T05:16:17.442Z,101080.17
2018-09-23T05:18:46.798Z,101076.33
2018-09-23T05:21:16.009Z,101063.72
2018-09-23T05:23:45.176Z,101060.99
2018-09-23T05:26:14.397Z,101066.45
2018-09-23T05:28:43.633Z,101063.36
2018-09-23T05:35:57.668Z,101062.52
2018-09-23T05:38:27.405Z,101058.41
2018-09-23T05:40:56.787Z,101053.17
2018-09-23T05:43:26.075Z,101052.29
2018-09-23T05:45:55.409Z,101035.59
2018-09-23T05:48:24.453Z,101044.23
2018-09-23T05:50:53.691Z,101042.55
2018-09-23T05:53:22.932Z,101041.97
2018-09-23T05:55:52.189Z,101033.15
2018-09-23T05:58:21.644Z,101028.41
2018-09-23T06:00:53.263Z,101032.44
2018-09-23T06:03:28.996Z,101037.81
2018-09-23T06:05:58.396Z,101038.52
2018-09-23T06:08:27.452Z,101031.06
2018-09-23T06:10:56.686Z,101031.47
2018-09-23T06:13:25.845Z,101034.48
2018-09-23T06:15:55.402Z,101041.81
2018-09-23T06:18:24.572Z,101040.85
2018-09-23T06:20:53.680Z,101038.92
2018-09-23T06:23:22.925Z,101048.62
2018-09-23T06:25:51.968Z,101047.98
2018-09-23T06:28:21.722Z,101043.05
2018-09-23T06:30:50.809Z,101038.78
2018-09-23T06:33:20.078Z,101045.77
2018-09-23T06:35:49.207Z,101044.34
2018-09-23T06:38:18.371Z,101047.03
2018-09-23T06:40:47.794Z,101065.55
2018-09-23T06:43:17.030Z,101075.11
2018-09-23T06:45:46.364Z,101069.44
2018-09-23T06:48:15.658Z,101065.70
2018-09-23T06:50:44.769Z,101057.19
2018-09-23T06:53:13.955Z,101050.21
2018-09-23T06:55:43.373Z,101046.98
2018-09-23T06:58:12.564Z,101044.17
2018-09-23T07:00:42.106Z,101056.61
2018-09-23T07:03:11.352Z,101056.30
2018-09-23T07:05:40.725Z,101046.31
2018-09-23T07:08:10.096Z,101044.59
2018-09-23T07:10:39.382Z,101048.12
2018-09-23T07:13:08.556Z,101053.35
2018-09-23T07:15:38.299Z,101046.87
2018-09-23T07:18:07.698Z,101035.31
2018-09-23T07:20:36.979Z,101035.91
2018-09-23T07:23:06.257Z,101038.74
2018-09-23T07:25:35.486Z,101043.92
2018-09-23T07:28:04.764Z,101040.73
2018-09-23T07:30:33.997Z,101038.11
2018-09-23T07:33:03.161Z,101048.81
2018-09-23T07:35:32.602Z,101041.69
2018-09-23T07:38:01.761Z,101036.90
2018-09-23T07:40:30.976Z,101037.58
2018-09-23T07:43:03.043Z,101044.55
2018-09-23T07:45:32.380Z,101059.36
2018-09-23T07:48:08.347Z,101056.42
2018-09-23T07:50:38.218Z,101060.81
2018-09-23T07:53:07.315Z,101051.06
2018-09-23T07:55:36.721Z,101046.39
2018-09-23T07:58:06.594Z,101044.00
2018-09-23T08:00:37.233Z,101051.06
2018-09-23T08:03:06.905Z,101040.03
2018-09-23T08:05:35.756Z,101027.14
2018-09-23T08:08:05.029Z,101029.48
2018-09-23T08:10:34.436Z,101030.03
2018-09-23T08:13:04.436Z,101019.61
2018-09-23T08:15:33.708Z,101014.19
2018-09-23T08:18:03.403Z,101008.12
2018-09-23T08:20:32.849Z,100997.13
2018-09-23T08:23:02.160Z,101009.23
2018-09-23T08:25:31.453Z,101008.70
2018-09-23T08:28:00.677Z,100997.87
2018-09-23T08:30:29.542Z,101002.34
2018-09-23T08:32:58.389Z,100994.64
2018-09-23T08:35:27.218Z,100991.53
2018-09-23T08:37:56.064Z,100984.53
2018-09-23T08:40:24.983Z,100986.76
2018-09-23T08:42:53.827Z,100984.75
2018-09-23T08:45:22.675Z,100992.52
2018-09-23T08:47:52.353Z,100990.89
2018-09-23T08:50:21.659Z,100984.24
2018-09-23T08:52:51.155Z,100987.28
2018-09-23T08:55:20.045Z,100989.04
2018-09-23T08:57:49.092Z,100975.06
2018-09-23T09:00:17.893Z,100989.89
2018-09-23T09:02:46.722Z,100992.04
2018-09-23T09:05:15.547Z,100974.91
2018-09-23T09:07:44.363Z,100972.19
2018-09-23T09:10:13.759Z,100958.56
2018-09-23T09:12:42.964Z,100958.39
2018-09-23T09:15:12.361Z,100939.13
2018-09-23T09:17:41.515Z,100929.28
2018-09-23T09:20:10.879Z,100950.90
2018-09-23T09:22:40.050Z,100914.16
2018-09-23T09:25:09.373Z,100924.89
2018-09-23T09:27:38.735Z,100924.50
2018-09-23T09:30:08.012Z,100927.31
2018-09-23T09:32:37.273Z,100930.78
2018-09-23T09:35:06.795Z,100929.63
2018-09-23T09:37:35.942Z,100926.07
2018-09-23T09:40:05.200Z,100928.84
2018-09-23T09:42:34.639Z,100928.33
2018-09-23T09:45:03.732Z,100929.14
2018-09-23T09:47:33.033Z,100941.44
2018-09-23T09:50:02.240Z,100934.66
2018-09-23T09:52:31.339Z,100940.02
2018-09-23T09:55:00.649Z,100945.72
2018-09-23T09:57:30.969Z,100953.87
2018-09-23T10:00:00.385Z,100943.53
2018-09-23T10:02:30.174Z,100934.68
2018-09-23T10:04:59.456Z,100920.70
2018-09-23T10:07:28.821Z,100911.91
2018-09-23T10:09:58.274Z,100899.78
2018-09-23T10:12:27.743Z,100886.80
2018-09-23T10:14:57.272Z,100893.75
2018-09-23T10:17:26.424Z,100892.89
2018-09-23T10:19:55.672Z,100882.59
2018-09-23T10:22:25.186Z,100882.71
2018-09-23T10:24:54.283Z,100875.30
2018-09-23T10:27:29.832Z,100866.36
2018-09-23T10:29:58.941Z,100863.41
2018-09-23T10:32:28.152Z,100857.75
2018-09-23T10:34:57.344Z,100857.67
2018-09-23T10:37:26.552Z,100849.97
2018-09-23T10:39:56.325Z,100846.78
2018-09-23T10:42:26.264Z,100846.36
2018-09-23T10:44:55.391Z,100824.29
2018-09-23T10:47:24.576Z,100807.59
2018-09-23T10:49:53.861Z,100789.27
2018-09-23T10:52:23.081Z,100788.03
2018-09-23T10:54:52.479Z,100800.70
2018-09-23T10:57:21.777Z,100795.12
2018-09-23T10:59:50.993Z,100796.82
2018-09-23T11:02:20.282Z,100786.91
2018-09-23T11:04:49.488Z,100799.05
2018-09-23T11:07:18.723Z,100786.77
2018-09-23T11:09:48.470Z,100781.52
2018-09-23T11:12:17.671Z,100782.77
2018-09-23T11:14:46.928Z,100785.23
2018-09-23T11:17:16.088Z,100787.81
2018-09-23T11:19:45.354Z,100780.09
2018-09-23T11:22:14.469Z,100779.97
2018-09-23T11:24:43.974Z,100773.50
2018-09-23T11:27:12.959Z,100759.10
2018-09-23T11:29:42.144Z,100747.52
2018-09-23T11:32:11.381Z,100742.04
2018-09-23T11:34:40.625Z,100725.64
2018-09-23T11:37:09.778Z,100723.96
2018-09-23T11:39:39.041Z,100717.14
2018-09-23T11:42:08.199Z,100709.48
2018-09-23T11:44:37.560Z,100705.11
2018-09-23T11:47:07.221Z,100711.87
2018-09-23T11:49:36.420Z,100706.91
2018-09-23T11:52:05.764Z,100701.53
2018-09-23T11:54:35.030Z,100693.70
2018-09-23T11:57:04.383Z,100691.56
2018-09-23T11:59:33.463Z,100674.55
2018-09-23T12:02:04.716Z,100665.16
2018-09-23T12:04:37.641Z,100659.16
2018-09-23T12:07:07.508Z,100660.34
2018-09-23T12:09:36.656Z,100668.04
2018-09-23T12:12:06.009Z,100668.44
2018-09-23T12:14:35.366Z,100649.40
2018-09-23T12:17:07.756Z,100631.47
2018-09-23T12:19:37.281Z,100618.89
2018-09-23T12:22:09.357Z,100604.64
2018-09-23T12:24:42.275Z,100604.62
2018-09-23T12:27:14.189Z,100609.56
2018-09-23T12:29:43.903Z,100601.11
2018-09-23T12:32:13.364Z,100607.17
2018-09-23T12:34:42.591Z,100626.35
2018-09-23T12:37:11.534Z,100617.13
2018-09-23T12:39:40.507Z,100615.97
2018-09-23T12:42:09.449Z,100616.91
2018-09-23T12:44:38.457Z,100622.40
2018-09-23T12:47:07.330Z,100620.10
2018-09-23T12:49:36.178Z,100605.02
2018-09-23T12:52:05.490Z,100604.81
2018-09-23T12:54:34.345Z,100601.73
2018-09-23T12:57:03.368Z,100591.89
2018-09-23T12:59:32.717Z,100589.16
2018-09-23T13:02:02.683Z,100596.94
2018-09-23T13:04:35.808Z,100584.27
2018-09-23T13:07:05.140Z,100580.70
2018-09-23T13:09:34.337Z,100578.05
2018-09-23T13:12:03.673Z,100564.16
2018-09-23T13:14:32.954Z,100571.27
2018-09-23T13:17:02.141Z,100571.84
2018-09-23T13:19:37.853Z,100560.95
2018-09-23T13:22:07.315Z,100570.22
2018-09-23T13:24:36.657Z,100551.18
2018-09-23T13:27:06.201Z,100545.49
2018-09-23T13:29:35.600Z,100540.59
2018-09-23T13:32:04.787Z,100530.83
2018-09-23T13:34:34.003Z,100533.62
2018-09-23T13:37:03.420Z,100530.33
2018-09-23T13:39:32.544Z,100526.55
2018-09-23T13:42:02.031Z,100519.13
2018-09-23T13:44:31.287Z,100500.09
2018-09-23T13:47:00.740Z,100491.74
2018-09-23T13:49:30.242Z,100474.67
2018-09-23T13:51:59.672Z,100466.50
2018-09-23T13:54:28.865Z,100462.45
2018-09-23T13:56:58.117Z,100456.44
2018-09-23T13:59:27.296Z,100455.43
2018-09-23T14:01:59.442Z,100437.35
2018-09-23T14:04:28.768Z,100369.48
2018-09-23T14:06:57.981Z,100348.88
2018-09-23T14:09:27.242Z,100342.63
2018-09-23T14:11:56.478Z,100327.83
2018-09-23T14:14:25.535Z,100311.63
2018-09-23T14:16:54.786Z,100312.02
2018-09-23T14:19:24.156Z,100297.59
2018-09-23T14:21:53.567Z,100258.14
2018-09-23T14:24:22.962Z,100221.19
2018-09-23T14:26:52.488Z,100228.88
2018-09-23T14:29:21.732Z,100239.08
2018-09-23T14:31:50.971Z,100267.92
2018-09-23T14:34:19.956Z,100308.36
2018-09-23T14:36:49.272Z,100347.08
2018-09-23T14:39:18.553Z,100328.26
2018-09-23T14:41:47.441Z,100334.20
2018-09-23T14:44:16.729Z,100323.81
2018-09-23T14:46:45.961Z,100327.44
2018-09-23T14:49:15.034Z,100310.42
2018-09-23T14:51:44.028Z,100294.97
2018-09-23T14:54:13.236Z,100266.73
2018-09-23T14:56:42.445Z,100262.38
2018-09-23T14:59:11.724Z,100274.44
2018-09-23T15:01:41.035Z,100282.94
2018-09-23T15:04:10.221Z,100298.96
2018-09-23T15:06:39.556Z,100296.32
2018-09-23T15:09:10.016Z,100287.45
2018-09-23T15:11:39.383Z,100287.34
2018-09-23T15:14:08.602Z,100299.06
2018-09-23T15:16:37.774Z,100312.13
2018-09-23T15:19:06.741Z,100313.02
2018-09-23T15:21:36.012Z,100303.45
2018-09-23T15:24:05.358Z,100273.33
2018-09-23T15:26:34.540Z,100249.96
2018-09-23T15:29:03.743Z,100248.94
2018-09-23T15:31:32.848Z,100256.85
2018-09-23T15:34:02.170Z,100259.97
2018-09-23T15:36:31.757Z,100246.44
2018-09-23T15:39:00.921Z,100226.34
2018-09-23T15:41:30.058Z,100245.88
2018-09-23T15:43:59.219Z,100248.62
2018-09-23T15:46:28.337Z,100231.09
2018-09-23T15:48:57.710Z,100236.54
2018-09-23T15:51:26.945Z,100233.95
2018-09-23T15:53:56.089Z,100230.08
2018-09-23T15:56:25.436Z,100231.13
2018-09-23T15:58:54.618Z,100218.19
2018-09-23T16:01:23.819Z,100212.48
2018-09-23T16:03:52.781Z,100210.17
2018-09-23T16:06:21.923Z,100202.13
2018-09-23T16:08:51.180Z,100198.27
2018-09-23T16:11:20.528Z,100205.02
2018-09-23T16:13:49.678Z,100205.62
2018-09-23T16:16:18.817Z,100212.70
2018-09-23T16:18:48.173Z,100211.44
2018-09-23T16:21:17.207Z,100183.05
2018-09-23T16:23:46.601Z,100202.11
2018-09-23T16:26:15.771Z,100196.91
2018-09-23T16:28:44.859Z,100187.44
2018-09-23T16:31:14.088Z,100173.77
2018-09-23T16:33:43.161Z,100172.61
2018-09-23T16:36:12.271Z,100167.73
2018-09-23T16:38:41.364Z,100152.16
2018-09-23T16:41:10.480Z,100117.66
2018-09-23T16:43:39.635Z,100072.84
2018-09-23T16:46:08.843Z,100039.98
2018-09-23T16:48:38.160Z,100042.76
2018-09-23T16:51:07.468Z,100046.33
2018-09-23T16:53:38.069Z,100066.59
2018-09-23T16:56:08.173Z,100075.73
2018-09-23T16:58:38.030Z,100094.58
2018-09-23T17:01:07.602Z,100105.11
2018-09-23T17:03:38.404Z,100136.38
2018-09-23T17:06:09.708Z,100155.09
2018-09-23T17:08:39.064Z,100163.31
2018-09-23T17:11:09.599Z,100166.05
2018-09-23T17:13:38.904Z,100151.36
2018-09-23T17:16:09.241Z,100165.77
2018-09-23T17:18:38.999Z,100135.10
2018-09-23T17:21:08.423Z,100125.25
2018-09-23T17:23:37.777Z,100177.48
2018-09-23T17:26:07.262Z,100241.67
2018-09-23T17:28:36.605Z,100259.04
2018-09-23T17:31:05.916Z,100177.69
2018-09-23T17:33:34.991Z,100111.57
2018-09-23T17:36:04.577Z,100143.08
2018-09-23T17:38:33.816Z,100171.95
2018-09-23T17:41:03.140Z,100229.75
2018-09-23T17:43:32.447Z,100293.40
2018-09-23T17:46:01.744Z,100268.95
2018-09-23T17:48:31.042Z,100204.22
2018-09-23T17:51:00.330Z,100215.60
2018-09-23T17:53:29.553Z,100275.14
2018-09-23T17:55:58.733Z,100288.92
2018-09-23T17:58:28.124Z,100291.95
2018-09-23T18:00:57.359Z,100313.30
2018-09-23T18:03:26.684Z,100313.12
2018-09-23T18:05:55.913Z,100284.34
2018-09-23T18:08:25.326Z,100234.57
2018-09-23T18:10:54.500Z,100244.98
2018-09-23T18:13:23.569Z,100245.94
2018-09-23T18:15:57.528Z,100299.71
2018-09-23T18:18:28.035Z,100338.31
2018-09-23T18:20:57.334Z,100364.39
2018-09-23T18:23:28.395Z,100384.78
2018-09-23T18:32:49.879Z,100486.03
2018-09-23T18:35:21.616Z,100515.72
2018-09-23T18:37:51.238Z,100504.16
2018-09-23T18:40:20.618Z,100491.48
2018-09-23T18:42:49.895Z,100445.44
2018-09-23T18:45:22.080Z,100425.63
2018-09-23T18:47:56.822Z,100430.98
2018-09-23T18:50:29.829Z,100408.46
2018-09-23T18:53:07.323Z,100409.48
2018-09-23T18:55:43.104Z,100419.80
2018-09-23T18:58:17.134Z,100419.87
2018-09-23T19:00:50.614Z,100406.13
2018-09-23T19:03:21.907Z,100413.73
2018-09-23T19:05:54.985Z,100396.80
2018-09-23T19:08:28.094Z,100382.45
2018-09-23T19:11:01.435Z,100386.88
2018-09-23T19:13:39.483Z,100413.23
2018-09-23T19:16:18.045Z,100422.88
2018-09-23T19:18:51.897Z,100450.69
2018-09-23T19:21:24.345Z,100478.94
2018-09-23T19:23:53.452Z,100517.18
2018-09-23T19:26:22.745Z,100530.27
2018-09-23T19:28:51.936Z,100547.38
2018-09-23T19:31:21.061Z,100559.77
2018-09-23T19:33:50.273Z,100557.81
2018-09-23T19:36:22.456Z,100544.50
2018-09-23T19:38:55.204Z,100544.83
2018-09-23T19:41:28.250Z,100548.38
2018-09-23T19:43:59.960Z,100545.91
2018-09-23T19:46:32.323Z,100530.19
2018-09-23T19:49:05.952Z,100537.75
2018-09-23T19:51:39.539Z,100528.46
2018-09-23T19:54:13.771Z,100540.61
2018-09-23T19:56:46.814Z,100537.98
2018-09-23T19:59:21.024Z,100547.56
2018-09-23T20:01:52.928Z,100554.98
2018-09-23T20:04:25.855Z,100562.90
2018-09-23T20:06:58.216Z,100574.80
2018-09-23T20:09:29.933Z,100591.05
2018-09-23T20:12:01.218Z,100603.97
2018-09-23T20:14:34.000Z,100602.97
2018-09-23T20:17:06.717Z,100613.59
2018-09-23T20:19:39.204Z,100618.92
2018-09-23T20:22:12.782Z,100621.98
2018-09-23T20:24:46.689Z,100612.72
2018-09-23T20:27:19.280Z,100617.19
2018-09-23T20:29:50.592Z,100626.41
2018-09-23T20:32:23.316Z,100627.00
2018-09-23T20:34:56.303Z,100631.38
2018-09-23T20:37:27.546Z,100633.84
2018-09-23T20:39:58.663Z,100635.77
2018-09-23T20:42:30.336Z,100657.89
2018-09-23T20:45:02.108Z,100674.31
2018-09-23T20:47:31.923Z,100685.58
2018-09-23T20:50:01.103Z,100683.58
2018-09-23T20:52:30.429Z,100689.73
2018-09-23T20:54:59.589Z,100697.08
2018-09-23T20:57:28.917Z,100706.70
2018-09-23T20:59:58.074Z,100720.07
2018-09-23T21:02:27.218Z,100726.55
2018-09-23T21:04:56.372Z,100738.92
2018-09-23T21:07:25.795Z,100752.30
2018-09-23T21:09:54.892Z,100762.42
2018-09-23T21:12:24.333Z,100774.55
2018-09-23T21:14:53.489Z,100753.42
2018-09-23T21:17:22.832Z,100765.70
2018-09-23T21:19:52.090Z,100772.55
2018-09-23T21:22:21.320Z,100769.27
2018-09-23T21:24:50.464Z,100768.76
2018-09-23T21:27:19.656Z,100768.80
2018-09-23T21:29:49.035Z,100776.11
2018-09-23T21:32:18.764Z,100788.44
2018-09-23T21:34:48.077Z,100789.05
2018-09-23T21:37:17.439Z,100790.23
2018-09-23T21:39:46.592Z,100792.03
2018-09-23T21:42:16.195Z,100795.65
2018-09-23T21:44:45.665Z,100792.33
2018-09-23T21:47:19.148Z,100790.96
2018-09-23T21:49:54.381Z,100794.25
